sensor_id;sensor_type;location;lat;lon;timestamp;temperature;humidity
70550;DHT22;58101;48.658;2.328;2022-07-29T00:00:38;19.70;54.60
70550;DHT22;58101;48.658;2.328;2022-07-29T00:03:04;19.60;54.90
70550;DHT22;58101;48.658;2.328;2022-07-29T00:05:29;19.60;55.30
70550;DHT22;58101;48.658;2.328;2022-07-29T00:07:56;19.60;55.60
70550;DHT22;58101;48.658;2.328;2022-07-29T00:10:22;19.50;55.80
70550;DHT22;58101;48.658;2.328;2022-07-29T00:12:48;19.50;56.20
70550;DHT22;58101;48.658;2.328;2022-07-29T00:15:14;19.50;56.40
70550;DHT22;58101;48.658;2.328;2022-07-29T00:17:40;19.40;56.50
70550;DHT22;58101;48.658;2.328;2022-07-29T00:20:06;19.40;56.60
70550;DHT22;58101;48.658;2.328;2022-07-29T00:22:31;19.40;56.80
70550;DHT22;58101;48.658;2.328;2022-07-29T00:24:57;19.40;57.20
70550;DHT22;58101;48.658;2.328;2022-07-29T00:27:23;19.30;57.10
70550;DHT22;58101;48.658;2.328;2022-07-29T00:29:48;19.30;57.20
70550;DHT22;58101;48.658;2.328;2022-07-29T00:32:14;19.30;57.50
70550;DHT22;58101;48.658;2.328;2022-07-29T00:34:40;19.20;57.60
70550;DHT22;58101;48.658;2.328;2022-07-29T00:37:24;19.20;57.80
70550;DHT22;58101;48.658;2.328;2022-07-29T00:39:50;19.20;58.30
70550;DHT22;58101;48.658;2.328;2022-07-29T00:42:16;19.10;58.70
70550;DHT22;58101;48.658;2.328;2022-07-29T00:44:42;19.10;59.10
70550;DHT22;58101;48.658;2.328;2022-07-29T00:47:09;19.10;59.20
70550;DHT22;58101;48.658;2.328;2022-07-29T00:49:35;19.00;59.30
70550;DHT22;58101;48.658;2.328;2022-07-29T00:52:05;19.00;59.70
70550;DHT22;58101;48.658;2.328;2022-07-29T00:54:32;19.00;60.00
70550;DHT22;58101;48.658;2.328;2022-07-29T00:56:59;19.00;60.40
70550;DHT22;58101;48.658;2.328;2022-07-29T00:59:26;18.90;60.70
70550;DHT22;58101;48.658;2.328;2022-07-29T01:01:53;18.90;61.00
70550;DHT22;58101;48.658;2.328;2022-07-29T01:04:19;18.80;61.40
70550;DHT22;58101;48.658;2.328;2022-07-29T01:06:44;18.80;61.80
70550;DHT22;58101;48.658;2.328;2022-07-29T01:09:11;18.80;61.40
70550;DHT22;58101;48.658;2.328;2022-07-29T01:11:37;18.80;61.40
70550;DHT22;58101;48.658;2.328;2022-07-29T01:14:03;18.70;61.50
70550;DHT22;58101;48.658;2.328;2022-07-29T01:16:45;18.70;61.80
70550;DHT22;58101;48.658;2.328;2022-07-29T01:19:45;18.70;61.70
70550;DHT22;58101;48.658;2.328;2022-07-29T01:28:14;18.60;62.50
70550;DHT22;58101;48.658;2.328;2022-07-29T01:30:44;18.50;62.70
70550;DHT22;58101;48.658;2.328;2022-07-29T01:33:13;18.50;62.90
70550;DHT22;58101;48.658;2.328;2022-07-29T01:36:01;18.50;63.10
70550;DHT22;58101;48.658;2.328;2022-07-29T01:38:31;18.50;63.30
70550;DHT22;58101;48.658;2.328;2022-07-29T01:41:06;18.50;63.50
70550;DHT22;58101;48.658;2.328;2022-07-29T01:43:38;18.40;63.60
70550;DHT22;58101;48.658;2.328;2022-07-29T01:46:09;18.40;63.80
70550;DHT22;58101;48.658;2.328;2022-07-29T01:48:40;18.30;64.20
70550;DHT22;58101;48.658;2.328;2022-07-29T01:54:16;18.30;64.80
70550;DHT22;58101;48.658;2.328;2022-07-29T01:56:44;18.30;65.40
70550;DHT22;58101;48.658;2.328;2022-07-29T01:59:10;18.20;65.60
70550;DHT22;58101;48.658;2.328;2022-07-29T02:01:39;18.20;66.20
70550;DHT22;58101;48.658;2.328;2022-07-29T02:04:08;18.20;66.20
70550;DHT22;58101;48.658;2.328;2022-07-29T02:06:37;18.20;66.30
70550;DHT22;58101;48.658;2.328;2022-07-29T02:09:04;18.20;66.50
70550;DHT22;58101;48.658;2.328;2022-07-29T02:11:33;18.10;66.80
70550;DHT22;58101;48.658;2.328;2022-07-29T02:14:00;18.10;66.90
70550;DHT22;58101;48.658;2.328;2022-07-29T02:16:28;18.10;66.60
70550;DHT22;58101;48.658;2.328;2022-07-29T02:18:56;18.10;66.50
70550;DHT22;58101;48.658;2.328;2022-07-29T02:21:25;18.10;66.80
70550;DHT22;58101;48.658;2.328;2022-07-29T02:23:56;18.10;67.10
70550;DHT22;58101;48.658;2.328;2022-07-29T02:26:26;18.10;67.40
70550;DHT22;58101;48.658;2.328;2022-07-29T02:28:55;18.00;67.30
70550;DHT22;58101;48.658;2.328;2022-07-29T02:31:24;18.00;67.90
70550;DHT22;58101;48.658;2.328;2022-07-29T02:33:52;18.00;68.10
70550;DHT22;58101;48.658;2.328;2022-07-29T02:36:21;17.90;68.20
70550;DHT22;58101;48.658;2.328;2022-07-29T02:38:48;17.90;68.30
70550;DHT22;58101;48.658;2.328;2022-07-29T02:41:24;17.90;68.70
70550;DHT22;58101;48.658;2.328;2022-07-29T02:43:55;17.80;69.10
70550;DHT22;58101;48.658;2.328;2022-07-29T02:46:33;17.80;69.50
70550;DHT22;58101;48.658;2.328;2022-07-29T02:51:58;17.70;70.90
70550;DHT22;58101;48.658;2.328;2022-07-29T02:54:40;17.70;71.40
70550;DHT22;58101;48.658;2.328;2022-07-29T02:57:19;17.70;71.80
70550;DHT22;58101;48.658;2.328;2022-07-29T02:59:48;17.70;72.00
70550;DHT22;58101;48.658;2.328;2022-07-29T03:02:14;17.60;72.30
70550;DHT22;58101;48.658;2.328;2022-07-29T03:04:42;17.60;72.80
70550;DHT22;58101;48.658;2.328;2022-07-29T03:07:09;17.60;73.30
70550;DHT22;58101;48.658;2.328;2022-07-29T03:09:36;17.60;73.80
70550;DHT22;58101;48.658;2.328;2022-07-29T03:12:04;17.50;74.10
70550;DHT22;58101;48.658;2.328;2022-07-29T03:14:31;17.50;74.60
70550;DHT22;58101;48.658;2.328;2022-07-29T03:16:57;17.50;74.90
70550;DHT22;58101;48.658;2.328;2022-07-29T03:19:23;17.50;75.00
70550;DHT22;58101;48.658;2.328;2022-07-29T03:21:49;17.60;75.10
70550;DHT22;58101;48.658;2.328;2022-07-29T03:24:26;17.50;75.00
70550;DHT22;58101;48.658;2.328;2022-07-29T03:26:52;17.40;75.10
70550;DHT22;58101;48.658;2.328;2022-07-29T03:29:17;17.40;74.90
70550;DHT22;58101;48.658;2.328;2022-07-29T03:31:43;17.40;75.10
70550;DHT22;58101;48.658;2.328;2022-07-29T03:34:09;17.30;75.60
70550;DHT22;58101;48.658;2.328;2022-07-29T03:36:34;17.30;76.40
70550;DHT22;58101;48.658;2.328;2022-07-29T03:39:00;17.30;76.80
70550;DHT22;58101;48.658;2.328;2022-07-29T03:41:26;17.30;77.20
70550;DHT22;58101;48.658;2.328;2022-07-29T03:43:53;17.30;77.20
70550;DHT22;58101;48.658;2.328;2022-07-29T03:46:22;17.30;77.20
70550;DHT22;58101;48.658;2.328;2022-07-29T03:48:52;17.20;77.70
70550;DHT22;58101;48.658;2.328;2022-07-29T03:51:21;17.20;78.30
70550;DHT22;58101;48.658;2.328;2022-07-29T03:53:47;17.20;78.40
70550;DHT22;58101;48.658;2.328;2022-07-29T03:56:15;17.20;78.50
70550;DHT22;58101;48.658;2.328;2022-07-29T03:58:42;17.20;78.50
70550;DHT22;58101;48.658;2.328;2022-07-29T04:01:08;17.10;78.90
70550;DHT22;58101;48.658;2.328;2022-07-29T04:03:34;17.10;79.10
70550;DHT22;58101;48.658;2.328;2022-07-29T04:06:03;17.00;79.00
70550;DHT22;58101;48.658;2.328;2022-07-29T04:08:30;17.00;79.30
70550;DHT22;58101;48.658;2.328;2022-07-29T04:10:56;17.00;79.50
70550;DHT22;58101;48.658;2.328;2022-07-29T04:13:22;17.00;79.40
70550;DHT22;58101;48.658;2.328;2022-07-29T04:15:47;17.00;79.20
70550;DHT22;58101;48.658;2.328;2022-07-29T04:18:13;17.00;79.20
70550;DHT22;58101;48.658;2.328;2022-07-29T04:20:39;17.00;78.80
70550;DHT22;58101;48.658;2.328;2022-07-29T04:23:04;17.10;78.60
70550;DHT22;58101;48.658;2.328;2022-07-29T04:25:30;17.00;78.30
70550;DHT22;58101;48.658;2.328;2022-07-29T04:27:55;17.10;78.10
70550;DHT22;58101;48.658;2.328;2022-07-29T04:30:27;17.10;77.80
70550;DHT22;58101;48.658;2.328;2022-07-29T04:32:53;17.10;77.40
70550;DHT22;58101;48.658;2.328;2022-07-29T04:35:19;17.10;77.60
70550;DHT22;58101;48.658;2.328;2022-07-29T04:37:45;17.10;78.70
70550;DHT22;58101;48.658;2.328;2022-07-29T04:40:10;17.10;78.20
70550;DHT22;58101;48.658;2.328;2022-07-29T04:42:37;17.10;77.80
70550;DHT22;58101;48.658;2.328;2022-07-29T04:45:03;17.10;77.10
70550;DHT22;58101;48.658;2.328;2022-07-29T04:47:28;17.20;76.10
70550;DHT22;58101;48.658;2.328;2022-07-29T04:49:54;17.20;74.90
70550;DHT22;58101;48.658;2.328;2022-07-29T04:52:21;17.20;74.80
70550;DHT22;58101;48.658;2.328;2022-07-29T04:54:47;17.30;74.90
70550;DHT22;58101;48.658;2.328;2022-07-29T04:57:13;17.30;74.40
70550;DHT22;58101;48.658;2.328;2022-07-29T04:59:39;17.30;74.10
70550;DHT22;58101;48.658;2.328;2022-07-29T05:02:05;17.30;73.90
70550;DHT22;58101;48.658;2.328;2022-07-29T05:04:30;17.40;73.50
70550;DHT22;58101;48.658;2.328;2022-07-29T05:06:56;17.50;72.70
70550;DHT22;58101;48.658;2.328;2022-07-29T05:09:21;17.50;72.80
70550;DHT22;58101;48.658;2.328;2022-07-29T05:11:47;17.60;72.80
70550;DHT22;58101;48.658;2.328;2022-07-29T05:14:13;17.60;72.70
70550;DHT22;58101;48.658;2.328;2022-07-29T05:16:38;17.60;72.30
70550;DHT22;58101;48.658;2.328;2022-07-29T05:19:07;17.60;71.50
70550;DHT22;58101;48.658;2.328;2022-07-29T05:21:33;17.70;71.30
70550;DHT22;58101;48.658;2.328;2022-07-29T05:23:58;17.80;71.10
70550;DHT22;58101;48.658;2.328;2022-07-29T05:26:24;17.80;70.90
70550;DHT22;58101;48.658;2.328;2022-07-29T05:28:49;17.80;71.50
70550;DHT22;58101;48.658;2.328;2022-07-29T05:31:15;17.90;71.60
70550;DHT22;58101;48.658;2.328;2022-07-29T05:33:44;17.90;71.50
70550;DHT22;58101;48.658;2.328;2022-07-29T05:36:10;18.00;72.10
70550;DHT22;58101;48.658;2.328;2022-07-29T05:38:37;18.10;72.50
70550;DHT22;58101;48.658;2.328;2022-07-29T05:41:03;18.00;72.10
70550;DHT22;58101;48.658;2.328;2022-07-29T05:43:32;18.10;72.20
70550;DHT22;58101;48.658;2.328;2022-07-29T05:45:57;18.00;73.60
70550;DHT22;58101;48.658;2.328;2022-07-29T05:48:23;18.00;74.40
70550;DHT22;58101;48.658;2.328;2022-07-29T05:50:49;17.90;75.10
70550;DHT22;58101;48.658;2.328;2022-07-29T05:53:14;17.90;75.70
70550;DHT22;58101;48.658;2.328;2022-07-29T05:55:41;18.00;74.80
70550;DHT22;58101;48.658;2.328;2022-07-29T05:58:07;18.00;75.80
70550;DHT22;58101;48.658;2.328;2022-07-29T06:00:32;18.10;75.30
70550;DHT22;58101;48.658;2.328;2022-07-29T06:02:58;18.10;73.70
70550;DHT22;58101;48.658;2.328;2022-07-29T06:05:23;18.10;74.40
70550;DHT22;58101;48.658;2.328;2022-07-29T06:07:49;18.20;74.20
70550;DHT22;58101;48.658;2.328;2022-07-29T06:10:15;18.30;73.70
70550;DHT22;58101;48.658;2.328;2022-07-29T06:12:40;18.40;72.20
70550;DHT22;58101;48.658;2.328;2022-07-29T06:15:06;18.40;72.20
70550;DHT22;58101;48.658;2.328;2022-07-29T06:17:32;18.40;71.20
70550;DHT22;58101;48.658;2.328;2022-07-29T06:19:58;18.50;71.10
70550;DHT22;58101;48.658;2.328;2022-07-29T06:22:23;18.60;69.80
70550;DHT22;58101;48.658;2.328;2022-07-29T06:24:49;18.80;69.80
70550;DHT22;58101;48.658;2.328;2022-07-29T06:27:15;18.90;69.30
70550;DHT22;58101;48.658;2.328;2022-07-29T06:29:41;19.00;68.90
70550;DHT22;58101;48.658;2.328;2022-07-29T06:32:07;19.10;67.60
70550;DHT22;58101;48.658;2.328;2022-07-29T06:34:35;19.20;67.50
70550;DHT22;58101;48.658;2.328;2022-07-29T06:37:08;19.30;67.10
70550;DHT22;58101;48.658;2.328;2022-07-29T06:39:37;19.40;67.00
70550;DHT22;58101;48.658;2.328;2022-07-29T06:42:06;19.50;66.60
70550;DHT22;58101;48.658;2.328;2022-07-29T06:44:32;19.60;64.40
70550;DHT22;58101;48.658;2.328;2022-07-29T06:47:01;19.60;66.50
70550;DHT22;58101;48.658;2.328;2022-07-29T06:49:27;19.60;66.10
70550;DHT22;58101;48.658;2.328;2022-07-29T06:51:53;19.70;67.70
70550;DHT22;58101;48.658;2.328;2022-07-29T06:54:19;19.80;67.10
70550;DHT22;58101;48.658;2.328;2022-07-29T06:56:45;19.80;65.80
70550;DHT22;58101;48.658;2.328;2022-07-29T06:59:11;19.90;66.20
70550;DHT22;58101;48.658;2.328;2022-07-29T07:01:39;20.00;66.80
70550;DHT22;58101;48.658;2.328;2022-07-29T07:04:05;20.10;67.90
70550;DHT22;58101;48.658;2.328;2022-07-29T07:06:31;20.20;67.80
70550;DHT22;58101;48.658;2.328;2022-07-29T07:08:57;20.20;67.30
70550;DHT22;58101;48.658;2.328;2022-07-29T07:11:22;20.20;67.20
70550;DHT22;58101;48.658;2.328;2022-07-29T07:13:48;20.10;68.20
70550;DHT22;58101;48.658;2.328;2022-07-29T07:16:14;20.10;67.90
70550;DHT22;58101;48.658;2.328;2022-07-29T07:18:39;20.20;69.10
70550;DHT22;58101;48.658;2.328;2022-07-29T07:21:05;20.20;69.10
70550;DHT22;58101;48.658;2.328;2022-07-29T07:23:31;20.20;67.90
70550;DHT22;58101;48.658;2.328;2022-07-29T07:25:57;20.20;69.00
70550;DHT22;58101;48.658;2.328;2022-07-29T07:28:23;20.30;68.40
70550;DHT22;58101;48.658;2.328;2022-07-29T07:30:48;20.50;67.10
70550;DHT22;58101;48.658;2.328;2022-07-29T07:33:14;20.70;64.70
70550;DHT22;58101;48.658;2.328;2022-07-29T07:35:40;20.80;64.10
70550;DHT22;58101;48.658;2.328;2022-07-29T07:38:06;20.90;64.80
70550;DHT22;58101;48.658;2.328;2022-07-29T07:40:32;21.20;61.30
70550;DHT22;58101;48.658;2.328;2022-07-29T07:42:58;21.40;58.80
70550;DHT22;58101;48.658;2.328;2022-07-29T07:45:24;21.70;57.70
70550;DHT22;58101;48.658;2.328;2022-07-29T07:47:49;22.10;54.70
70550;DHT22;58101;48.658;2.328;2022-07-29T07:50:15;22.30;53.30
70550;DHT22;58101;48.658;2.328;2022-07-29T07:52:53;22.40;52.50
70550;DHT22;58101;48.658;2.328;2022-07-29T07:55:19;22.60;51.90
70550;DHT22;58101;48.658;2.328;2022-07-29T07:57:45;22.70;51.90
70550;DHT22;58101;48.658;2.328;2022-07-29T08:00:13;22.80;51.40
70550;DHT22;58101;48.658;2.328;2022-07-29T08:02:40;22.90;50.70
70550;DHT22;58101;48.658;2.328;2022-07-29T08:05:06;23.00;49.80
70550;DHT22;58101;48.658;2.328;2022-07-29T08:07:33;23.10;49.30
70550;DHT22;58101;48.658;2.328;2022-07-29T08:09:58;23.20;49.20
70550;DHT22;58101;48.658;2.328;2022-07-29T08:12:24;23.30;49.90
70550;DHT22;58101;48.658;2.328;2022-07-29T08:14:49;23.40;48.70
70550;DHT22;58101;48.658;2.328;2022-07-29T08:17:15;23.60;48.60
70550;DHT22;58101;48.658;2.328;2022-07-29T08:19:41;23.70;48.20
70550;DHT22;58101;48.658;2.328;2022-07-29T08:22:06;23.80;47.70
70550;DHT22;58101;48.658;2.328;2022-07-29T08:24:32;23.90;47.90
70550;DHT22;58101;48.658;2.328;2022-07-29T08:27:12;24.00;47.30
70550;DHT22;58101;48.658;2.328;2022-07-29T08:29:38;24.20;47.40
70550;DHT22;58101;48.658;2.328;2022-07-29T08:32:04;24.40;47.40
70550;DHT22;58101;48.658;2.328;2022-07-29T08:34:30;24.50;46.70
70550;DHT22;58101;48.658;2.328;2022-07-29T08:36:56;24.60;46.00
70550;DHT22;58101;48.658;2.328;2022-07-29T08:39:23;24.70;45.60
70550;DHT22;58101;48.658;2.328;2022-07-29T08:41:49;24.80;45.30
70550;DHT22;58101;48.658;2.328;2022-07-29T08:44:17;25.00;45.00
70550;DHT22;58101;48.658;2.328;2022-07-29T08:46:43;25.10;43.20
70550;DHT22;58101;48.658;2.328;2022-07-29T08:49:09;25.20;42.00
70550;DHT22;58101;48.658;2.328;2022-07-29T08:51:34;25.30;42.20
70550;DHT22;58101;48.658;2.328;2022-07-29T08:54:01;25.60;40.80
70550;DHT22;58101;48.658;2.328;2022-07-29T08:56:28;25.90;40.90
70550;DHT22;58101;48.658;2.328;2022-07-29T08:58:54;26.10;40.20
70550;DHT22;58101;48.658;2.328;2022-07-29T09:01:25;26.30;40.20
70550;DHT22;58101;48.658;2.328;2022-07-29T09:03:55;26.60;39.90
70550;DHT22;58101;48.658;2.328;2022-07-29T09:06:21;26.80;39.40
70550;DHT22;58101;48.658;2.328;2022-07-29T09:08:48;27.10;38.90
70550;DHT22;58101;48.658;2.328;2022-07-29T09:11:14;27.50;37.80
70550;DHT22;58101;48.658;2.328;2022-07-29T09:13:40;27.80;36.60
70550;DHT22;58101;48.658;2.328;2022-07-29T09:16:06;28.30;33.00
70550;DHT22;58101;48.658;2.328;2022-07-29T09:18:39;28.40;33.50
70550;DHT22;58101;48.658;2.328;2022-07-29T09:21:06;28.60;33.40
70550;DHT22;58101;48.658;2.328;2022-07-29T09:24:11;29.20;33.40
70550;DHT22;58101;48.658;2.328;2022-07-29T09:26:44;29.70;31.30
70550;DHT22;58101;48.658;2.328;2022-07-29T09:29:18;29.80;30.50
70550;DHT22;58101;48.658;2.328;2022-07-29T09:31:49;30.40;30.20
70550;DHT22;58101;48.658;2.328;2022-07-29T09:34:20;31.40;28.90
70550;DHT22;58101;48.658;2.328;2022-07-29T09:36:48;32.60;27.20
70550;DHT22;58101;48.658;2.328;2022-07-29T09:39:15;33.80;25.70
70550;DHT22;58101;48.658;2.328;2022-07-29T09:41:46;34.60;23.90
70550;DHT22;58101;48.658;2.328;2022-07-29T09:44:12;35.20;23.80
70550;DHT22;58101;48.658;2.328;2022-07-29T09:47:02;35.70;23.80
70550;DHT22;58101;48.658;2.328;2022-07-29T09:49:35;36.40;23.10
70550;DHT22;58101;48.658;2.328;2022-07-29T09:54:31;37.30;22.00
70550;DHT22;58101;48.658;2.328;2022-07-29T09:57:06;38.00;21.50
70550;DHT22;58101;48.658;2.328;2022-07-29T09:59:32;38.60;21.20
70550;DHT22;58101;48.658;2.328;2022-07-29T10:01:58;38.60;20.80
70550;DHT22;58101;48.658;2.328;2022-07-29T10:04:37;38.20;20.90
70550;DHT22;58101;48.658;2.328;2022-07-29T10:07:03;37.70;21.20
70550;DHT22;58101;48.658;2.328;2022-07-29T10:09:30;37.80;21.80
70550;DHT22;58101;48.658;2.328;2022-07-29T10:14:32;37.50;21.90
70550;DHT22;58101;48.658;2.328;2022-07-29T10:17:00;37.60;21.50
70550;DHT22;58101;48.658;2.328;2022-07-29T10:19:28;38.00;21.60
70550;DHT22;58101;48.658;2.328;2022-07-29T10:21:55;38.70;21.20
70550;DHT22;58101;48.658;2.328;2022-07-29T10:24:21;39.30;20.60
70550;DHT22;58101;48.658;2.328;2022-07-29T10:26:47;39.60;19.80
70550;DHT22;58101;48.658;2.328;2022-07-29T10:29:13;39.90;19.70
70550;DHT22;58101;48.658;2.328;2022-07-29T10:32:06;40.20;19.40
70550;DHT22;58101;48.658;2.328;2022-07-29T10:37:33;40.50;18.70
70550;DHT22;58101;48.658;2.328;2022-07-29T10:43:16;40.00;18.90
70550;DHT22;58101;48.658;2.328;2022-07-29T10:45:44;39.80;18.80
70550;DHT22;58101;48.658;2.328;2022-07-29T10:48:10;39.80;19.00
70550;DHT22;58101;48.658;2.328;2022-07-29T10:50:59;39.70;18.50
70550;DHT22;58101;48.658;2.328;2022-07-29T10:53:49;39.60;18.80
70550;DHT22;58101;48.658;2.328;2022-07-29T10:56:30;39.50;18.90
70550;DHT22;58101;48.658;2.328;2022-07-29T11:01:46;39.20;19.10
70550;DHT22;58101;48.658;2.328;2022-07-29T11:04:12;39.10;19.70
70550;DHT22;58101;48.658;2.328;2022-07-29T11:09:25;39.00;19.60
70550;DHT22;58101;48.658;2.328;2022-07-29T11:11:52;38.90;20.00
70550;DHT22;58101;48.658;2.328;2022-07-29T11:14:20;38.70;20.00
70550;DHT22;58101;48.658;2.328;2022-07-29T11:17:05;38.50;20.70
70550;DHT22;58101;48.658;2.328;2022-07-29T11:19:32;38.20;19.60
70550;DHT22;58101;48.658;2.328;2022-07-29T11:22:12;37.90;20.30
70550;DHT22;58101;48.658;2.328;2022-07-29T11:25:14;37.40;20.90
70550;DHT22;58101;48.658;2.328;2022-07-29T11:27:40;37.20;21.60
70550;DHT22;58101;48.658;2.328;2022-07-29T11:30:06;37.00;21.90
70550;DHT22;58101;48.658;2.328;2022-07-29T11:32:41;36.90;21.90
70550;DHT22;58101;48.658;2.328;2022-07-29T11:37:37;36.90;21.30
70550;DHT22;58101;48.658;2.328;2022-07-29T11:45:03;36.40;21.90
70550;DHT22;58101;48.658;2.328;2022-07-29T11:47:34;36.20;22.30
70550;DHT22;58101;48.658;2.328;2022-07-29T11:50:03;36.30;22.60
70550;DHT22;58101;48.658;2.328;2022-07-29T11:52:42;36.30;21.50
70550;DHT22;58101;48.658;2.328;2022-07-29T11:55:12;36.40;22.30
70550;DHT22;58101;48.658;2.328;2022-07-29T11:57:46;36.40;22.10
70550;DHT22;58101;48.658;2.328;2022-07-29T12:00:41;36.70;22.60
70550;DHT22;58101;48.658;2.328;2022-07-29T12:03:09;37.10;22.30
70550;DHT22;58101;48.658;2.328;2022-07-29T12:05:43;37.30;21.90
70550;DHT22;58101;48.658;2.328;2022-07-29T12:08:19;37.30;20.60
70550;DHT22;58101;48.658;2.328;2022-07-29T12:10:46;37.10;20.70
70550;DHT22;58101;48.658;2.328;2022-07-29T12:13:13;37.10;21.00
70550;DHT22;58101;48.658;2.328;2022-07-29T12:15:40;37.20;21.30
70550;DHT22;58101;48.658;2.328;2022-07-29T12:18:10;37.20;21.20
70550;DHT22;58101;48.658;2.328;2022-07-29T12:20:36;36.80;21.60
70550;DHT22;58101;48.658;2.328;2022-07-29T12:23:05;36.50;22.20
70550;DHT22;58101;48.658;2.328;2022-07-29T12:25:34;36.30;21.20
70550;DHT22;58101;48.658;2.328;2022-07-29T12:28:02;36.10;21.80
70550;DHT22;58101;48.658;2.328;2022-07-29T12:30:38;35.90;22.20
70550;DHT22;58101;48.658;2.328;2022-07-29T12:33:18;35.90;22.60
70550;DHT22;58101;48.658;2.328;2022-07-29T12:35:45;36.00;22.20
70550;DHT22;58101;48.658;2.328;2022-07-29T12:38:12;36.10;21.70
70550;DHT22;58101;48.658;2.328;2022-07-29T12:40:38;36.10;21.70
70550;DHT22;58101;48.658;2.328;2022-07-29T12:43:17;35.80;21.80
70550;DHT22;58101;48.658;2.328;2022-07-29T12:45:49;35.50;22.00
70550;DHT22;58101;48.658;2.328;2022-07-29T12:48:16;35.30;22.50
70550;DHT22;58101;48.658;2.328;2022-07-29T12:50:59;35.30;22.00
70550;DHT22;58101;48.658;2.328;2022-07-29T12:53:25;35.20;21.90
70550;DHT22;58101;48.658;2.328;2022-07-29T12:55:53;34.90;22.30
70550;DHT22;58101;48.658;2.328;2022-07-29T12:58:35;34.70;22.70
70550;DHT22;58101;48.658;2.328;2022-07-29T13:01:03;34.50;22.90
70550;DHT22;58101;48.658;2.328;2022-07-29T13:03:48;34.50;23.20
70550;DHT22;58101;48.658;2.328;2022-07-29T13:09:09;35.00;22.90
70550;DHT22;58101;48.658;2.328;2022-07-29T13:11:38;35.10;22.20
70550;DHT22;58101;48.658;2.328;2022-07-29T13:14:08;35.00;22.00
70550;DHT22;58101;48.658;2.328;2022-07-29T13:16:35;35.00;22.40
70550;DHT22;58101;48.658;2.328;2022-07-29T13:19:11;34.90;22.80
70550;DHT22;58101;48.658;2.328;2022-07-29T13:21:38;34.80;22.90
70550;DHT22;58101;48.658;2.328;2022-07-29T13:24:06;34.80;22.50
70550;DHT22;58101;48.658;2.328;2022-07-29T13:26:31;34.80;22.70
70550;DHT22;58101;48.658;2.328;2022-07-29T13:28:57;34.80;22.70
70550;DHT22;58101;48.658;2.328;2022-07-29T13:31:23;34.50;22.90
70550;DHT22;58101;48.658;2.328;2022-07-29T13:33:49;34.10;23.00
70550;DHT22;58101;48.658;2.328;2022-07-29T13:36:14;33.90;23.60
70550;DHT22;58101;48.658;2.328;2022-07-29T13:38:40;33.90;23.90
70550;DHT22;58101;48.658;2.328;2022-07-29T13:41:06;34.00;23.80
70550;DHT22;58101;48.658;2.328;2022-07-29T13:43:31;34.20;23.90
70550;DHT22;58101;48.658;2.328;2022-07-29T13:45:57;34.30;23.50
70550;DHT22;58101;48.658;2.328;2022-07-29T13:48:23;34.10;23.40
70550;DHT22;58101;48.658;2.328;2022-07-29T13:50:48;33.80;23.40
70550;DHT22;58101;48.658;2.328;2022-07-29T13:53:14;33.40;23.60
70550;DHT22;58101;48.658;2.328;2022-07-29T13:55:39;33.20;24.20
70550;DHT22;58101;48.658;2.328;2022-07-29T13:58:05;32.90;24.50
70550;DHT22;58101;48.658;2.328;2022-07-29T14:00:31;32.70;24.60
70550;DHT22;58101;48.658;2.328;2022-07-29T14:02:56;32.50;24.70
70550;DHT22;58101;48.658;2.328;2022-07-29T14:05:22;32.30;25.20
70550;DHT22;58101;48.658;2.328;2022-07-29T14:07:48;32.10;25.40
70550;DHT22;58101;48.658;2.328;2022-07-29T14:10:14;31.80;26.20
70550;DHT22;58101;48.658;2.328;2022-07-29T14:12:39;31.60;26.00
70550;DHT22;58101;48.658;2.328;2022-07-29T14:15:07;31.40;26.20
70550;DHT22;58101;48.658;2.328;2022-07-29T14:17:33;31.50;26.30
70550;DHT22;58101;48.658;2.328;2022-07-29T14:19:59;31.80;26.00
70550;DHT22;58101;48.658;2.328;2022-07-29T14:22:24;31.90;25.90
70550;DHT22;58101;48.658;2.328;2022-07-29T14:24:50;31.90;25.70
70550;DHT22;58101;48.658;2.328;2022-07-29T14:27:16;31.80;25.80
70550;DHT22;58101;48.658;2.328;2022-07-29T14:29:42;31.60;25.80
70550;DHT22;58101;48.658;2.328;2022-07-29T14:32:09;31.40;26.30
70550;DHT22;58101;48.658;2.328;2022-07-29T14:34:36;31.20;26.40
70550;DHT22;58101;48.658;2.328;2022-07-29T14:37:02;31.00;26.70
70550;DHT22;58101;48.658;2.328;2022-07-29T14:39:30;30.90;26.90
70550;DHT22;58101;48.658;2.328;2022-07-29T14:41:56;30.80;26.90
70550;DHT22;58101;48.658;2.328;2022-07-29T14:44:22;30.60;27.10
70550;DHT22;58101;48.658;2.328;2022-07-29T14:46:47;30.40;27.30
70550;DHT22;58101;48.658;2.328;2022-07-29T14:49:13;30.30;27.40
70550;DHT22;58101;48.658;2.328;2022-07-29T14:51:39;30.20;27.50
70550;DHT22;58101;48.658;2.328;2022-07-29T14:54:04;30.20;27.80
70550;DHT22;58101;48.658;2.328;2022-07-29T14:56:30;30.20;28.10
70550;DHT22;58101;48.658;2.328;2022-07-29T14:58:56;30.20;28.10
70550;DHT22;58101;48.658;2.328;2022-07-29T15:01:23;30.20;27.90
70550;DHT22;58101;48.658;2.328;2022-07-29T15:03:49;30.40;27.70
70550;DHT22;58101;48.658;2.328;2022-07-29T15:06:15;30.50;27.50
70550;DHT22;58101;48.658;2.328;2022-07-29T15:08:56;30.60;27.50
70550;DHT22;58101;48.658;2.328;2022-07-29T15:11:22;30.70;27.40
70550;DHT22;58101;48.658;2.328;2022-07-29T15:13:47;30.80;27.20
70550;DHT22;58101;48.658;2.328;2022-07-29T15:16:13;30.80;27.20
70550;DHT22;58101;48.658;2.328;2022-07-29T15:18:39;30.80;27.20
70550;DHT22;58101;48.658;2.328;2022-07-29T15:21:05;30.70;27.20
70550;DHT22;58101;48.658;2.328;2022-07-29T15:23:32;30.60;27.30
70550;DHT22;58101;48.658;2.328;2022-07-29T15:26:08;30.50;27.40
70550;DHT22;58101;48.658;2.328;2022-07-29T15:28:33;30.50;27.60
70550;DHT22;58101;48.658;2.328;2022-07-29T15:30:59;30.40;27.70
70550;DHT22;58101;48.658;2.328;2022-07-29T15:33:25;30.30;27.80
70550;DHT22;58101;48.658;2.328;2022-07-29T15:35:51;30.30;27.80
70550;DHT22;58101;48.658;2.328;2022-07-29T15:38:17;30.50;27.80
70550;DHT22;58101;48.658;2.328;2022-07-29T15:40:43;30.60;27.40
70550;DHT22;58101;48.658;2.328;2022-07-29T15:43:09;30.70;27.10
70550;DHT22;58101;48.658;2.328;2022-07-29T15:45:39;30.60;26.80
70550;DHT22;58101;48.658;2.328;2022-07-29T15:48:06;30.50;27.10
70550;DHT22;58101;48.658;2.328;2022-07-29T15:50:32;30.50;27.40
70550;DHT22;58101;48.658;2.328;2022-07-29T15:52:58;30.30;27.70
70550;DHT22;58101;48.658;2.328;2022-07-29T15:55:24;30.20;28.00
70550;DHT22;58101;48.658;2.328;2022-07-29T15:57:50;30.10;28.20
70550;DHT22;58101;48.658;2.328;2022-07-29T16:00:15;30.10;28.40
70550;DHT22;58101;48.658;2.328;2022-07-29T16:02:42;29.90;28.60
70550;DHT22;58101;48.658;2.328;2022-07-29T16:05:08;29.90;28.70
70550;DHT22;58101;48.658;2.328;2022-07-29T16:07:34;29.80;28.80
70550;DHT22;58101;48.658;2.328;2022-07-29T16:09:59;29.70;29.20
70550;DHT22;58101;48.658;2.328;2022-07-29T16:12:25;29.70;29.30
70550;DHT22;58101;48.658;2.328;2022-07-29T16:14:51;29.60;29.30